Time;durP1;ratioP1;P1;durP2;ratioP2;P2;SDS_P1;SDS_P2;PMS_P1;PMS_P2;Temp;Humidity;BMP_temperature;BMP_pressure;BME280_temperature;BME280_humidity;BME280_pressure;Samples;Min_cycle;Max_cycle;Signal;HPM_P1;HPM_P2
2024/02/13 00:00:10;;;;;;;18.42;13.45;;;9.40;99.90;;;;;;5133697;27;20214;-78
2024/02/13 00:02:46;;;;;;;17.35;15.23;;;9.30;99.90;;;;;;5133428;27;20218;-77
2024/02/13 00:05:13;;;;;;;19.42;13.90;;;9.40;99.90;;;;;;5131559;27;20233;-78
2024/02/13 00:07:41;;;;;;;16.67;13.77;;;9.30;99.90;;;;;;5121259;27;20217;-78
2024/02/13 00:10:12;;;;;;;19.73;16.25;;;9.40;99.90;;;;;;5108922;27;20551;-77
2024/02/13 00:12:43;;;;;;;25.27;19.95;;;9.40;99.90;;;;;;5129680;27;20232;-77
2024/02/13 00:15:20;;;;;;;21.80;16.55;;;9.30;99.90;;;;;;5134302;27;20214;-78
2024/02/13 00:17:56;;;;;;;20.63;15.25;;;9.30;99.90;;;;;;5124135;27;20270;-78
2024/02/13 00:20:24;;;;;;;21.05;14.95;;;9.30;99.90;;;;;;5126530;27;20666;-78
2024/02/13 00:22:53;;;;;;;21.45;16.00;;;9.30;99.90;;;;;;5131630;27;20218;-78
2024/02/13 00:25:23;;;;;;;17.08;13.35;;;9.30;99.90;;;;;;5115748;27;20297;-78
2024/02/13 00:27:59;;;;;;;22.38;15.73;;;9.30;99.90;;;;;;5118492;27;20215;-78
2024/02/13 00:30:31;;;;;;;16.50;14.07;;;9.30;99.90;;;;;;5113202;27;20226;-75
2024/02/13 00:32:58;;;;;;;21.70;14.02;;;9.40;99.90;;;;;;5112718;28;20234;-78
2024/02/13 00:35:31;;;;;;;19.38;16.33;;;9.30;99.90;;;;;;5128259;27;20221;-78
2024/02/13 00:37:59;;;;;;;19.88;16.63;;;9.40;99.90;;;;;;5155148;27;20569;-77
2024/02/13 00:40:26;;;;;;;19.10;14.95;;;9.40;99.90;;;;;;5153904;27;20225;-78
2024/02/13 00:42:53;;;;;;;21.98;15.48;;;9.40;99.90;;;;;;5141787;27;20233;-78
2024/02/13 00:45:20;;;;;;;20.73;15.82;;;9.40;99.90;;;;;;5143827;27;20233;-77
2024/02/13 00:47:52;;;;;;;20.25;14.93;;;9.40;99.90;;;;;;5139342;27;20226;-77
2024/02/13 00:50:19;;;;;;;20.30;14.80;;;9.40;99.90;;;;;;5133305;27;20236;-78
2024/02/13 00:52:49;;;;;;;19.55;13.82;;;9.40;99.90;;;;;;5133840;27;20226;-78
2024/02/13 00:55:16;;;;;;;23.40;14.90;;;9.40;99.90;;;;;;5130568;27;20218;-77
2024/02/13 00:57:43;;;;;;;20.15;14.68;;;9.40;99.90;;;;;;5133860;27;20230;-78
2024/02/13 01:00:12;;;;;;;21.10;15.15;;;9.40;99.90;;;;;;5134181;27;20290;-77
2024/02/13 01:02:45;;;;;;;16.85;14.30;;;9.40;99.90;;;;;;5124464;27;20237;-77
2024/02/13 01:05:13;;;;;;;21.70;13.80;;;9.40;99.90;;;;;;5125467;27;20224;-77
2024/02/13 01:07:40;;;;;;;19.30;14.25;;;9.40;99.90;;;;;;5133437;27;20225;-77
2024/02/13 01:10:08;;;;;;;16.98;12.90;;;9.40;99.90;;;;;;5124010;27;20232;-78
2024/02/13 01:12:36;;;;;;;17.67;12.43;;;9.40;99.90;;;;;;5132597;28;20230;-77
2024/02/13 01:15:04;;;;;;;20.35;14.52;;;9.40;99.90;;;;;;5115762;28;20218;-78
2024/02/13 01:17:31;;;;;;;16.23;11.85;;;9.40;99.90;;;;;;5114870;27;20218;-78
2024/02/13 01:20:11;;;;;;;20.13;14.15;;;9.40;99.90;;;;;;5134088;27;20606;-77
2024/02/13 01:22:41;;;;;;;16.25;12.65;;;9.40;99.90;;;;;;5132777;27;20299;-77
2024/02/13 01:25:11;;;;;;;16.15;12.90;;;9.40;99.90;;;;;;5115026;28;20218;-78
2024/02/13 01:27:41;;;;;;;19.10;15.02;;;9.40;99.90;;;;;;5112528;28;20215;-77
2024/02/13 01:30:13;;;;;;;19.92;12.55;;;9.40;99.90;;;;;;5112928;28;20218;-77
2024/02/13 01:32:41;;;;;;;18.83;12.98;;;9.40;99.90;;;;;;5110415;28;20227;-78
2024/02/13 01:35:09;;;;;;;16.08;11.93;;;9.30;99.90;;;;;;5124857;27;20213;-78
2024/02/13 01:37:36;;;;;;;17.77;12.15;;;9.40;99.90;;;;;;5153982;27;20213;-78
2024/02/13 01:40:09;;;;;;;16.42;11.80;;;9.40;99.90;;;;;;5154245;27;20228;-77
2024/02/13 01:42:37;;;;;;;19.40;11.93;;;9.40;99.90;;;;;;5153592;27;20225;-78
2024/02/13 01:45:06;;;;;;;17.40;12.30;;;9.30;99.90;;;;;;5144897;27;20225;-77
2024/02/13 01:47:39;;;;;;;18.88;13.55;;;9.30;99.90;;;;;;5146936;27;20656;-77
2024/02/13 01:50:17;;;;;;;15.82;12.07;;;9.30;99.90;;;;;;5133005;28;20218;-77
2024/02/13 01:52:46;;;;;;;14.88;11.80;;;9.30;99.90;;;;;;5131488;28;20317;-77
2024/02/13 01:55:18;;;;;;;15.07;11.38;;;9.30;99.90;;;;;;5128895;28;20222;-78
2024/02/13 01:57:45;;;;;;;14.50;11.05;;;9.40;99.90;;;;;;5132422;28;20218;-78
2024/02/13 02:00:14;;;;;;;12.60;10.90;;;9.30;99.90;;;;;;5132949;28;20214;-78
2024/02/13 02:02:43;;;;;;;15.50;11.40;;;9.30;99.90;;;;;;5132487;28;20233;-78
2024/02/13 02:05:11;;;;;;;14.55;11.48;;;9.30;99.90;;;;;;5136632;27;20217;-78
2024/02/13 02:07:45;;;;;;;15.40;13.15;;;9.30;99.90;;;;;;5133021;27;20248;-78
2024/02/13 02:10:25;;;;;;;18.42;11.02;;;9.30;99.90;;;;;;5120526;27;20219;-77
2024/02/13 02:12:53;;;;;;;17.25;12.07;;;9.20;99.90;;;;;;5112461;28;20557;-78
2024/02/13 02:15:20;;;;;;;17.30;11.00;;;9.30;99.90;;;;;;5112351;28;20215;-78
2024/02/13 02:17:52;;;;;;;14.48;10.95;;;9.30;99.90;;;;;;5100943;28;20623;-77
2024/02/13 02:20:22;;;;;;;14.80;11.52;;;9.30;99.90;;;;;;5113193;28;20242;-78
2024/02/13 02:22:53;;;;;;;15.05;11.02;;;9.40;99.90;;;;;;5135526;27;20682;-78
2024/02/13 02:25:22;;;;;;;13.55;11.07;;;9.40;99.90;;;;;;5116534;27;20250;-77
2024/02/13 02:27:50;;;;;;;11.90;10.10;;;9.40;99.90;;;;;;5125443;27;20559;-78
2024/02/13 02:30:17;;;;;;;10.95;9.30;;;9.40;99.90;;;;;;5136398;27;20222;-77
2024/02/13 02:32:47;;;;;;;16.40;10.02;;;9.40;99.90;;;;;;5136004;27;20309;-78
2024/02/13 02:35:18;;;;;;;11.35;9.40;;;9.40;99.90;;;;;;5134677;27;20214;-78
2024/02/13 02:37:48;;;;;;;17.98;11.18;;;9.40;99.90;;;;;;5125616;27;20217;-78
2024/02/13 02:40:16;;;;;;;11.88;10.43;;;9.40;99.90;;;;;;5133541;27;20298;-78
2024/02/13 02:42:47;;;;;;;12.43;10.25;;;9.30;99.90;;;;;;5135843;27;20237;-79
2024/02/13 02:45:16;;;;;;;16.27;10.15;;;9.30;99.90;;;;;;5149813;27;20231;-81
2024/02/13 02:47:43;;;;;;;15.68;10.95;;;9.30;99.90;;;;;;5137137;27;20254;-76
2024/02/13 02:50:11;;;;;;;13.25;10.65;;;9.40;99.90;;;;;;5135155;27;20218;-78
2024/02/13 02:52:40;;;;;;;10.32;8.35;;;9.40;99.90;;;;;;5135481;27;20274;-78
2024/02/13 02:55:11;;;;;;;11.55;10.00;;;9.40;99.90;;;;;;5135866;27;20214;-78
2024/02/13 02:57:39;;;;;;;12.95;9.23;;;9.40;99.90;;;;;;5137117;27;20244;-76
2024/02/13 03:00:10;;;;;;;11.98;9.63;;;9.40;99.90;;;;;;5135777;27;20291;-78
2024/02/13 03:02:37;;;;;;;12.00;8.52;;;9.40;99.90;;;;;;5136164;27;20551;-78
2024/02/13 03:05:05;;;;;;;12.82;10.02;;;9.40;99.90;;;;;;5135312;27;20552;-76
2024/02/13 03:07:33;;;;;;;11.45;8.85;;;9.40;99.90;;;;;;5115788;28;20673;-78
2024/02/13 03:10:00;;;;;;;9.93;8.90;;;9.40;99.90;;;;;;5115347;28;20326;-79
2024/02/13 03:12:27;;;;;;;11.38;7.72;;;9.30;99.90;;;;;;5115643;28;20222;-76
2024/02/13 03:14:55;;;;;;;11.07;7.95;;;9.30;99.90;;;;;;5115003;28;20218;-78
2024/02/13 03:17:24;;;;;;;9.48;8.13;;;9.30;99.90;;;;;;5115417;28;20232;-78
2024/02/13 03:19:51;;;;;;;9.73;7.38;;;9.30;99.90;;;;;;5115041;28;20257;-78
2024/02/13 03:22:19;;;;;;;15.90;10.45;;;9.20;99.90;;;;;;5114459;28;20222;-75
2024/02/13 03:24:49;;;;;;;10.43;7.88;;;9.20;99.90;;;;;;5124195;27;20226;-77
2024/02/13 03:27:16;;;;;;;10.23;7.40;;;9.20;99.90;;;;;;5135832;27;20226;-76
2024/02/13 03:29:43;;;;;;;10.57;8.05;;;9.20;99.90;;;;;;5124286;27;20257;-76
2024/02/13 03:32:12;;;;;;;9.65;8.18;;;9.20;99.90;;;;;;5123751;27;20230;-77
2024/02/13 03:34:40;;;;;;;9.68;7.40;;;9.20;99.90;;;;;;5135054;27;20278;-76
2024/02/13 03:37:08;;;;;;;9.80;7.90;;;9.20;99.90;;;;;;5135145;27;20279;-78
2024/02/13 03:39:42;;;;;;;8.27;7.30;;;9.20;99.90;;;;;;5135863;27;20222;-77
2024/02/13 03:42:13;;;;;;;11.23;7.80;;;9.20;99.90;;;;;;5134981;27;20218;-78
2024/02/13 03:44:40;;;;;;;9.10;7.20;;;9.20;99.90;;;;;;5135801;27;20234;-77
2024/02/13 03:47:07;;;;;;;8.18;6.75;;;9.30;99.90;;;;;;5134655;27;20297;-78
2024/02/13 03:49:37;;;;;;;10.05;7.35;;;9.30;99.90;;;;;;5135371;27;20228;-78
2024/02/13 03:52:06;;;;;;;7.53;6.72;;;9.30;99.90;;;;;;5134067;27;20226;-77
2024/02/13 03:54:33;;;;;;;10.13;7.43;;;9.30;99.90;;;;;;5135601;27;20224;-78
2024/02/13 03:57:01;;;;;;;8.35;7.05;;;9.30;99.90;;;;;;5134552;27;20229;-77
2024/02/13 03:59:29;;;;;;;9.80;7.00;;;9.30;99.90;;;;;;5134976;27;20612;-76
2024/02/13 04:01:56;;;;;;;8.90;7.53;;;9.40;99.90;;;;;;5134352;27;20229;-77
2024/02/13 04:04:26;;;;;;;7.80;5.93;;;9.40;99.90;;;;;;5135417;27;20214;-78
2024/02/13 04:06:53;;;;;;;9.65;6.30;;;9.40;99.90;;;;;;5135056;27;20296;-78
2024/02/13 04:09:22;;;;;;;8.60;6.20;;;9.40;99.90;;;;;;5134900;27;20217;-78
2024/02/13 04:11:50;;;;;;;6.10;5.43;;;9.40;99.90;;;;;;5122158;27;20222;-78
2024/02/13 04:14:18;;;;;;;8.25;6.65;;;9.40;99.90;;;;;;5134098;27;20321;-77
2024/02/13 04:16:45;;;;;;;11.07;6.40;;;9.30;99.90;;;;;;5135033;27;20222;-77
2024/02/13 04:19:12;;;;;;;8.35;6.15;;;9.30;99.90;;;;;;5134092;27;20248;-77
2024/02/13 04:21:41;;;;;;;5.15;4.60;;;9.30;99.90;;;;;;5134808;27;20735;-78
2024/02/13 04:24:08;;;;;;;5.05;4.40;;;9.20;99.90;;;;;;5133470;27;20606;-77
2024/02/13 04:26:41;;;;;;;5.32;4.15;;;9.30;99.90;;;;;;5134906;27;20632;-76
2024/02/13 04:29:10;;;;;;;5.68;4.60;;;9.30;99.90;;;;;;5134190;27;20733;-77
2024/02/13 04:31:38;;;;;;;5.57;4.15;;;9.30;99.90;;;;;;5133891;27;20217;-77
2024/02/13 04:34:07;;;;;;;4.65;3.63;;;9.30;99.90;;;;;;5133770;27;20222;-77
2024/02/13 04:36:34;;;;;;;5.90;3.95;;;9.20;99.90;;;;;;5133858;27;20242;-78
2024/02/13 04:39:01;;;;;;;4.10;3.38;;;9.20;99.90;;;;;;5134589;27;20226;-77
2024/02/13 04:41:30;;;;;;;4.30;3.80;;;9.10;99.90;;;;;;5133808;27;20222;-78
2024/02/13 04:44:00;;;;;;;5.00;4.15;;;9.10;99.90;;;;;;5133800;27;20683;-78
2024/02/13 04:46:27;;;;;;;5.90;4.13;;;9.00;99.90;;;;;;5112583;27;20607;-78
2024/02/13 04:48:54;;;;;;;8.57;4.57;;;9.00;99.90;;;;;;5133811;27;20312;-78
2024/02/13 04:51:23;;;;;;;7.65;4.47;;;9.00;99.90;;;;;;5133613;27;20701;-77
2024/02/13 04:53:51;;;;;;;4.38;3.80;;;9.10;99.90;;;;;;5134256;27;20236;-77
2024/02/13 04:56:18;;;;;;;4.93;4.43;;;9.00;99.90;;;;;;5133537;27;20226;-76
2024/02/13 04:58:45;;;;;;;6.22;4.38;;;9.00;99.90;;;;;;5134239;27;20228;-76
2024/02/13 05:01:14;;;;;;;6.10;4.95;;;9.10;99.90;;;;;;5133703;27;20227;-78
2024/02/13 05:07:19;;;;;;;6.40;5.30;;;9.10;99.90;;;;;;5133729;27;20288;-78
2024/02/13 05:09:15;;;;;;;7.82;5.82;;;9.00;99.90;;;;;;5134170;28;20561;-78
2024/02/13 05:11:45;;;;;;;7.10;5.40;;;9.00;99.90;;;;;;5133614;28;20233;-78
2024/02/13 05:14:22;;;;;;;7.43;6.57;;;9.00;99.90;;;;;;5133961;28;20245;-78
2024/02/13 05:16:53;;;;;;;6.07;5.07;;;9.00;99.90;;;;;;5133980;28;20217;-78
2024/02/13 05:19:20;;;;;;;5.93;5.13;;;9.00;99.90;;;;;;5134122;28;20226;-76
2024/02/13 05:21:51;;;;;;;9.05;5.10;;;9.00;99.90;;;;;;5133113;28;20225;-76
2024/02/13 05:24:24;;;;;;;5.57;5.00;;;8.90;99.90;;;;;;5134209;28;20559;-76
2024/02/13 05:26:51;;;;;;;7.40;6.68;;;8.90;99.90;;;;;;5133432;28;20222;-77
2024/02/13 05:29:18;;;;;;;6.68;6.07;;;8.90;99.90;;;;;;5134018;28;20232;-76
2024/02/13 05:31:45;;;;;;;6.75;4.93;;;8.90;99.90;;;;;;5122709;28;20706;-78
2024/02/13 05:34:16;;;;;;;6.03;5.03;;;8.90;99.90;;;;;;5133529;28;20252;-78
2024/02/13 05:36:43;;;;;;;5.38;4.93;;;8.90;99.90;;;;;;5132292;28;20544;-78
2024/02/13 05:39:10;;;;;;;7.63;6.07;;;8.90;99.90;;;;;;5133997;28;20308;-76
2024/02/13 05:41:39;;;;;;;5.13;4.55;;;9.00;99.90;;;;;;5133218;28;20218;-76
2024/02/13 05:44:09;;;;;;;6.38;5.30;;;8.90;99.90;;;;;;5133607;28;20222;-78
2024/02/13 05:46:37;;;;;;;6.63;5.68;;;8.90;99.90;;;;;;5132292;28;20229;-78
2024/02/13 05:49:04;;;;;;;6.70;6.07;;;9.00;99.90;;;;;;5133908;28;20670;-78
2024/02/13 05:51:32;;;;;;;7.68;5.03;;;8.90;99.90;;;;;;5133237;28;20705;-76
2024/02/13 05:54:03;;;;;;;7.85;5.78;;;8.90;99.90;;;;;;5133597;28;20222;-76
2024/02/13 05:56:33;;;;;;;5.60;5.10;;;8.90;99.90;;;;;;5137285;27;20296;-78
2024/02/13 05:59:03;;;;;;;6.25;5.20;;;8.90;99.90;;;;;;5126131;27;20228;-77
2024/02/13 06:01:36;;;;;;;8.15;5.80;;;8.90;99.90;;;;;;5136818;27;20218;-78
2024/02/13 06:04:07;;;;;;;6.63;5.95;;;8.90;99.90;;;;;;5136876;27;20999;-77
2024/02/13 06:06:38;;;;;;;8.18;5.57;;;8.90;99.90;;;;;;5136823;27;20283;-77
2024/02/13 06:09:20;;;;;;;9.13;6.53;;;8.90;99.90;;;;;;5135770;27;20304;-76
2024/02/13 06:11:54;;;;;;;7.15;5.60;;;8.90;99.90;;;;;;5137002;27;20564;-77
2024/02/13 06:14:27;;;;;;;7.95;7.15;;;8.80;99.90;;;;;;5137092;27;20313;-77
2024/02/13 06:16:59;;;;;;;7.75;6.95;;;8.80;99.90;;;;;;5125309;27;20222;-76
2024/02/13 06:19:28;;;;;;;14.45;10.90;;;8.80;99.90;;;;;;5137216;27;20222;-78
2024/02/13 06:21:56;;;;;;;10.50;8.05;;;8.80;99.90;;;;;;5126001;27;20295;-78
2024/02/13 06:24:23;;;;;;;8.02;7.15;;;8.80;99.90;;;;;;5126663;27;20225;-77
2024/02/13 06:26:54;;;;;;;8.13;6.68;;;8.80;99.90;;;;;;5136474;27;20667;-77
2024/02/13 06:29:21;;;;;;;7.07;6.45;;;8.80;99.90;;;;;;5127804;27;20233;-78
2024/02/13 06:31:48;;;;;;;11.15;6.60;;;8.80;99.90;;;;;;5137104;27;20222;-77
2024/02/13 06:34:17;;;;;;;8.45;7.07;;;8.80;99.90;;;;;;5136217;27;20671;-76
2024/02/13 06:36:47;;;;;;;6.78;5.60;;;8.80;99.90;;;;;;5136575;27;20699;-77
2024/02/13 06:39:21;;;;;;;8.45;7.60;;;8.80;99.90;;;;;;5136153;27;20217;-76
2024/02/13 06:41:47;;;;;;;9.57;7.40;;;8.90;99.90;;;;;;5137021;27;20226;-76
2024/02/13 06:44:15;;;;;;;14.00;9.48;;;8.90;99.90;;;;;;5136092;27;20233;-78
2024/02/13 06:46:45;;;;;;;11.13;7.95;;;8.90;99.90;;;;;;5136534;27;20312;-78
2024/02/13 06:49:12;;;;;;;7.03;6.10;;;8.90;99.90;;;;;;5135153;27;20222;-78
2024/02/13 06:51:39;;;;;;;9.05;6.90;;;8.90;99.90;;;;;;5125385;27;20240;-78
2024/02/13 06:54:06;;;;;;;7.03;6.32;;;9.00;99.90;;;;;;5135624;27;20222;-78
2024/02/13 06:56:38;;;;;;;9.45;8.38;;;8.90;99.90;;;;;;5125787;27;20217;-78
2024/02/13 06:59:08;;;;;;;8.73;7.05;;;9.00;99.90;;;;;;5135370;27;20309;-77
2024/02/13 07:01:43;;;;;;;14.23;9.75;;;9.00;99.90;;;;;;5136735;27;20230;-77
2024/02/13 07:04:10;;;;;;;12.10;8.10;;;9.00;99.90;;;;;;5135539;27;20252;-76
2024/02/13 07:06:37;;;;;;;8.63;7.65;;;9.00;99.90;;;;;;5135588;27;20253;-76
2024/02/13 07:09:13;;;;;;;11.50;9.30;;;9.00;99.90;;;;;;5136051;27;20226;-77
2024/02/13 07:11:42;;;;;;;11.13;8.95;;;9.00;99.90;;;;;;5135927;27;20249;-77
2024/02/13 07:14:10;;;;;;;8.48;7.65;;;8.90;99.90;;;;;;5135406;27;20305;-77
2024/02/13 07:16:38;;;;;;;8.43;6.65;;;9.00;99.90;;;;;;5135680;27;20240;-76
2024/02/13 07:19:14;;;;;;;9.55;8.02;;;9.00;99.90;;;;;;5123533;27;20241;-77
2024/02/13 07:21:41;;;;;;;10.00;6.40;;;9.00;99.90;;;;;;5135598;27;20236;-76
2024/02/13 07:24:13;;;;;;;9.30;7.45;;;9.00;99.90;;;;;;5135920;27;20312;-76
2024/02/13 07:26:41;;;;;;;7.72;6.90;;;9.00;99.90;;;;;;5135285;27;20305;-76
2024/02/13 07:29:09;;;;;;;9.38;7.55;;;9.10;99.90;;;;;;5138513;27;20226;-75
2024/02/13 07:31:36;;;;;;;12.52;8.38;;;9.10;99.90;;;;;;5134236;27;20226;-77
2024/02/13 07:34:03;;;;;;;9.82;8.80;;;9.10;99.90;;;;;;5135486;27;20249;-76
2024/02/13 07:36:30;;;;;;;17.45;11.60;;;9.10;99.90;;;;;;5135356;27;20305;-75
2024/02/13 07:38:57;;;;;;;15.10;11.68;;;9.20;99.90;;;;;;5135517;27;20558;-75
2024/02/13 07:41:24;;;;;;;12.90;9.30;;;9.20;99.90;;;;;;5135290;27;20233;-75
2024/02/13 07:43:53;;;;;;;8.52;7.63;;;9.20;99.90;;;;;;5135645;27;20562;-75
2024/02/13 07:46:20;;;;;;;8.48;7.63;;;9.30;99.90;;;;;;5134974;27;20218;-75
2024/02/13 07:48:52;;;;;;;13.43;9.52;;;9.30;99.90;;;;;;5135050;27;20684;-75
2024/02/13 07:51:21;;;;;;;9.23;7.75;;;9.40;99.90;;;;;;5134992;27;20222;-75
2024/02/13 07:53:49;;;;;;;10.60;8.32;;;9.40;99.90;;;;;;5135010;27;20230;-75
2024/02/13 07:56:24;;;;;;;12.63;8.23;;;9.40;99.90;;;;;;5135571;27;20213;-75
2024/02/13 07:58:53;;;;;;;8.63;7.13;;;9.40;99.90;;;;;;5134784;27;20557;-75
2024/02/13 08:01:22;;;;;;;7.75;6.95;;;9.40;99.90;;;;;;5135362;27;20229;-75
2024/02/13 08:03:49;;;;;;;9.48;7.75;;;9.40;99.90;;;;;;5134572;27;20230;-75
2024/02/13 08:06:16;;;;;;;9.77;7.50;;;9.40;99.90;;;;;;5134972;27;20226;-75
2024/02/13 08:08:43;;;;;;;9.30;8.40;;;9.40;99.90;;;;;;5134780;27;20237;-75
2024/02/13 08:11:10;;;;;;;10.55;8.23;;;9.40;99.90;;;;;;5134844;27;20222;-75
2024/02/13 08:13:38;;;;;;;15.43;8.48;;;9.40;99.90;;;;;;5134123;27;20279;-75
2024/02/13 08:16:07;;;;;;;11.55;9.50;;;9.50;99.90;;;;;;5123967;27;20226;-75
2024/02/13 08:18:34;;;;;;;14.70;11.43;;;9.50;99.90;;;;;;5132547;27;20763;-75
2024/02/13 08:21:10;;;;;;;12.18;8.13;;;9.50;99.90;;;;;;5134781;27;20214;-75
2024/02/13 08:23:37;;;;;;;11.70;9.07;;;9.50;99.90;;;;;;5134590;27;20222;-76
2024/02/13 08:26:04;;;;;;;11.00;8.80;;;9.50;99.90;;;;;;5134689;27;20235;-75
2024/02/13 08:28:31;;;;;;;11.32;9.45;;;9.40;99.90;;;;;;5134862;27;20226;-75
2024/02/13 08:31:01;;;;;;;10.60;7.70;;;9.40;99.90;;;;;;5134478;27;20610;-75
2024/02/13 08:33:32;;;;;;;10.40;8.63;;;9.40;99.90;;;;;;5134297;27;20305;-75
2024/02/13 08:35:59;;;;;;;9.90;8.18;;;9.40;99.90;;;;;;5134016;27;20222;-77
2024/02/13 08:38:26;;;;;;;11.85;8.70;;;9.50;99.90;;;;;;5134388;27;20228;-76
2024/02/13 08:40:53;;;;;;;14.18;8.10;;;9.60;99.90;;;;;;5134052;27;20224;-75
2024/02/13 08:43:21;;;;;;;13.93;8.68;;;9.60;99.90;;;;;;5134496;27;20573;-75
2024/02/13 08:45:48;;;;;;;7.45;6.72;;;9.70;99.90;;;;;;5134344;27;20252;-77
2024/02/13 08:48:18;;;;;;;11.32;6.63;;;9.70;99.90;;;;;;5134576;27;20687;-77
2024/02/13 08:50:48;;;;;;;9.60;8.65;;;9.70;99.90;;;;;;5133502;27;20678;-75
2024/02/13 08:53:15;;;;;;;9.68;8.45;;;9.80;99.90;;;;;;5134455;27;20225;-75
2024/02/13 08:55:42;;;;;;;10.90;7.75;;;9.80;99.90;;;;;;5133805;27;20248;-75
2024/02/13 08:58:09;;;;;;;11.45;9.00;;;9.90;99.90;;;;;;5134311;27;20232;-75
2024/02/13 09:00:39;;;;;;;7.15;6.45;;;9.90;99.90;;;;;;5134313;27;20214;-77
2024/02/13 09:03:13;;;;;;;19.10;13.07;;;9.90;99.90;;;;;;5133748;27;20222;-75
2024/02/13 09:05:42;;;;;;;12.63;9.23;;;10.00;99.90;;;;;;5134192;27;20244;-75
2024/02/13 09:08:12;;;;;;;7.85;7.00;;;9.90;99.90;;;;;;5134195;27;20632;-75
2024/02/13 09:10:39;;;;;;;13.30;8.98;;;9.90;99.90;;;;;;5133947;28;20232;-75
2024/02/13 09:13:09;;;;;;;9.07;8.18;;;10.00;99.90;;;;;;5133261;28;20266;-76
2024/02/13 09:15:36;;;;;;;10.48;7.22;;;10.00;99.90;;;;;;5125499;28;20672;-77
2024/02/13 09:18:03;;;;;;;11.77;7.32;;;10.00;99.90;;;;;;5132726;27;20214;-77
2024/02/13 09:20:32;;;;;;;8.68;7.43;;;10.00;99.90;;;;;;5132496;27;20246;-75
2024/02/13 09:22:59;;;;;;;13.75;7.38;;;10.00;99.90;;;;;;5113943;28;20226;-75
2024/02/13 09:25:28;;;;;;;10.02;7.55;;;10.00;99.90;;;;;;5130241;27;20237;-75
2024/02/13 09:27:55;;;;;;;8.27;7.43;;;10.00;99.90;;;;;;5118932;27;20230;-75
2024/02/13 09:30:23;;;;;;;11.13;6.13;;;10.00;99.90;;;;;;5134724;27;20218;-75
2024/02/13 09:32:50;;;;;;;8.20;7.35;;;10.00;99.90;;;;;;5134134;27;20222;-76
2024/02/13 09:35:20;;;;;;;10.20;7.20;;;10.10;99.90;;;;;;5136956;27;20224;-75
2024/02/13 09:37:52;;;;;;;8.18;7.30;;;10.10;99.90;;;;;;5137261;27;20232;-75
2024/02/13 09:40:21;;;;;;;13.82;10.32;;;10.20;99.90;;;;;;5137253;27;20293;-75
2024/02/13 09:42:50;;;;;;;9.70;7.80;;;10.10;99.90;;;;;;5137027;27;20225;-75
2024/02/13 09:45:17;;;;;;;10.38;8.20;;;10.20;99.90;;;;;;5137180;27;20274;-75
2024/02/13 09:47:45;;;;;;;8.55;7.07;;;10.20;99.90;;;;;;5124437;27;20683;-77
2024/02/13 09:50:16;;;;;;;11.57;7.45;;;10.30;99.90;;;;;;5129544;27;20556;-77
2024/02/13 09:52:51;;;;;;;8.15;6.70;;;10.30;99.90;;;;;;5122575;27;20556;-76
2024/02/13 09:55:19;;;;;;;8.93;7.13;;;10.40;99.90;;;;;;5114353;28;20303;-75
2024/02/13 09:57:50;;;;;;;11.15;7.18;;;10.50;99.90;;;;;;5116354;28;20218;-75
2024/02/13 10:00:20;;;;;;;10.85;7.50;;;10.60;99.90;;;;;;5116173;27;20222;-75
2024/02/13 10:02:48;;;;;;;9.95;6.80;;;10.60;99.90;;;;;;5116572;28;20222;-75
2024/02/13 10:05:16;;;;;;;8.05;6.68;;;10.60;99.90;;;;;;5115332;28;20680;-75
2024/02/13 10:07:44;;;;;;;14.07;9.20;;;10.60;99.90;;;;;;5115681;28;20676;-75
2024/02/13 10:10:14;;;;;;;7.45;6.75;;;10.60;99.90;;;;;;5104835;28;20227;-76
2024/02/13 10:12:51;;;;;;;7.28;6.38;;;10.70;99.90;;;;;;5115582;28;20226;-76
2024/02/13 10:15:19;;;;;;;6.35;5.72;;;10.70;99.90;;;;;;5109978;28;20236;-75
2024/02/13 10:17:55;;;;;;;17.30;7.70;;;10.80;99.90;;;;;;5115426;28;20229;-76
2024/02/13 10:20:22;;;;;;;10.85;6.95;;;10.80;99.90;;;;;;5113515;28;20214;-75
2024/02/13 10:22:53;;;;;;;8.00;7.13;;;10.90;99.90;;;;;;5115814;28;20218;-76
2024/02/13 10:25:22;;;;;;;7.30;5.85;;;10.90;99.90;;;;;;5111628;28;20223;-76
2024/02/13 10:27:54;;;;;;;10.75;5.82;;;10.90;99.90;;;;;;5116086;28;20234;-75
2024/02/13 10:30:25;;;;;;;7.88;5.75;;;10.80;99.90;;;;;;5114584;27;20575;-76
2024/02/13 10:32:52;;;;;;;6.10;5.43;;;10.90;99.90;;;;;;5117366;27;20238;-77
2024/02/13 10:35:21;;;;;;;6.68;5.80;;;10.90;99.90;;;;;;5105438;28;20218;-76
2024/02/13 10:37:50;;;;;;;9.55;6.30;;;10.90;99.90;;;;;;5115176;28;20218;-76
2024/02/13 10:40:22;;;;;;;10.18;6.70;;;10.90;99.90;;;;;;5103898;28;20218;-77
2024/02/13 10:42:55;;;;;;;6.50;5.90;;;10.90;99.90;;;;;;5112550;28;20287;-77
2024/02/13 10:45:24;;;;;;;7.53;5.88;;;10.90;99.90;;;;;;5103982;28;20214;-77
2024/02/13 10:47:54;;;;;;;13.27;8.73;;;11.00;99.90;;;;;;5121217;27;20563;-76
2024/02/13 10:50:23;;;;;;;7.82;6.70;;;11.00;99.90;;;;;;5115030;27;20621;-77
2024/02/13 10:52:54;;;;;;;5.90;4.18;;;11.00;99.90;;;;;;5133321;27;20602;-77
2024/02/13 10:55:26;;;;;;;5.85;5.25;;;11.10;99.90;;;;;;5135220;27;20244;-77
2024/02/13 10:57:56;;;;;;;5.65;5.15;;;11.20;99.90;;;;;;5134057;27;20242;-77
2024/02/13 11:00:25;;;;;;;5.47;4.97;;;11.20;99.90;;;;;;5135411;27;20213;-77
2024/02/13 11:02:52;;;;;;;4.45;3.72;;;11.20;99.90;;;;;;5135656;27;20237;-77
2024/02/13 11:05:20;;;;;;;7.05;5.25;;;11.20;99.90;;;;;;5135070;27;20209;-78
2024/02/13 11:07:48;;;;;;;6.63;4.78;;;11.30;99.90;;;;;;5135860;27;20222;-77
2024/02/13 11:10:29;;;;;;;;;;;;;;;;;;;;;
2024/02/13 11:12:58;;;;;;;10.70;7.85;;;11.40;99.90;;;;;;5124332;27;20214;-77
2024/02/13 11:15:29;;;;;;;6.35;4.95;;;11.40;99.90;;;;;;5124875;27;20248;-77
2024/02/13 11:17:57;;;;;;;8.10;5.70;;;11.40;99.90;;;;;;5125871;27;20223;-76
2024/02/13 11:20:27;;;;;;;7.88;5.50;;;11.40;99.90;;;;;;5114866;28;20229;-76
2024/02/13 11:22:59;;;;;;;7.85;6.13;;;11.50;99.90;;;;;;5115043;28;20320;-76
2024/02/13 11:25:27;;;;;;;7.50;4.95;;;11.50;99.90;;;;;;5133562;27;20248;-76
2024/02/13 11:28:03;;;;;;;6.78;5.05;;;11.40;99.90;;;;;;5134898;27;20279;-76
2024/02/13 11:30:31;;;;;;;5.68;3.45;;;11.40;99.90;;;;;;5125725;27;20618;-77
2024/02/13 11:33:01;;;;;;;4.85;4.10;;;11.40;99.90;;;;;;5135221;27;20253;-77
2024/02/13 11:35:30;;;;;;;3.78;2.85;;;11.40;99.90;;;;;;5134460;27;20309;-77
2024/02/13 11:38:03;;;;;;;6.35;4.30;;;11.40;99.90;;;;;;5131603;27;20571;-77
2024/02/13 11:40:30;;;;;;;6.05;4.43;;;11.30;99.90;;;;;;5123704;27;20210;-77
2024/02/13 11:43:01;;;;;;;4.70;3.30;;;11.30;99.90;;;;;;5132580;27;20317;-77
2024/02/13 11:45:28;;;;;;;8.00;4.70;;;11.30;99.90;;;;;;5134404;27;20218;-77
2024/02/13 11:47:56;;;;;;;8.63;5.55;;;11.30;99.90;;;;;;5126559;27;20237;-77
2024/02/13 11:50:23;;;;;;;7.53;3.50;;;11.30;99.90;;;;;;5134187;27;20268;-77
2024/02/13 11:52:51;;;;;;;4.50;3.80;;;11.30;99.90;;;;;;5134606;27;20222;-77
2024/02/13 11:55:27;;;;;;;4.50;3.15;;;11.40;99.90;;;;;;5133965;27;20260;-78
2024/02/13 11:57:55;;;;;;;5.75;3.83;;;11.40;99.90;;;;;;5134635;27;20217;-77
2024/02/13 12:00:25;;;;;;;3.45;3.13;;;11.40;99.90;;;;;;5133131;27;20282;-76
2024/02/13 12:03:01;;;;;;;4.68;4.20;;;11.50;99.90;;;;;;5134904;27;20230;-77
2024/02/13 12:05:28;;;;;;;4.10;3.70;;;11.50;99.90;;;;;;5133913;27;20747;-77
2024/02/13 12:07:58;;;;;;;5.90;4.03;;;11.50;99.90;;;;;;5133898;27;20218;-77
2024/02/13 12:10:25;;;;;;;6.90;2.45;;;11.60;99.90;;;;;;5133863;27;20221;-77
2024/02/13 12:12:52;;;;;;;7.47;3.65;;;11.60;99.90;;;;;;5134938;27;20237;-77
2024/02/13 12:15:22;;;;;;;2.70;2.17;;;11.60;99.90;;;;;;5134110;27;20218;-77
2024/02/13 12:18:03;;;;;;;5.00;2.50;;;11.60;99.90;;;;;;5134931;27;20253;-77
2024/02/13 12:20:32;;;;;;;2.28;2.03;;;11.60;99.90;;;;;;5133713;27;20530;-77
2024/02/13 12:23:06;;;;;;;5.82;3.10;;;11.60;99.90;;;;;;5134710;27;20291;-76
2024/02/13 12:25:35;;;;;;;5.85;3.22;;;11.50;99.90;;;;;;5134213;27;20302;-77
2024/02/13 12:28:07;;;;;;;4.10;3.28;;;11.50;99.90;;;;;;5124335;27;20226;-77
2024/02/13 12:30:34;;;;;;;5.00;2.90;;;11.50;99.90;;;;;;5133426;27;20218;-76
2024/02/13 12:33:09;;;;;;;9.43;5.40;;;11.50;99.90;;;;;;5134398;27;20222;-77
2024/02/13 12:35:44;;;;;;;7.05;5.22;;;11.50;99.90;;;;;;5123096;27;20561;-77
2024/02/13 12:38:14;;;;;;;10.23;6.00;;;11.50;99.90;;;;;;5134574;27;20680;-77
2024/02/13 12:40:41;;;;;;;13.68;10.35;;;11.50;99.90;;;;;;5133703;27;20222;-76
2024/02/13 12:43:09;;;;;;;4.03;3.63;;;11.50;99.90;;;;;;5134314;27;20283;-76
2024/02/13 12:45:41;;;;;;;13.55;8.20;;;11.60;99.90;;;;;;5134093;27;20275;-76
2024/02/13 12:48:12;;;;;;;10.77;6.68;;;11.60;99.90;;;;;;5134531;27;20607;-77
2024/02/13 12:50:41;;;;;;;10.70;6.30;;;11.60;99.90;;;;;;5133683;27;20343;-77
2024/02/13 12:53:11;;;;;;;4.97;3.60;;;11.60;99.90;;;;;;5134219;27;20304;-77
2024/02/13 12:55:40;;;;;;;6.10;3.85;;;11.70;99.90;;;;;;5133468;27;20222;-76
2024/02/13 12:58:11;;;;;;;14.80;8.65;;;11.80;99.90;;;;;;5134094;27;20279;-76
2024/02/13 13:00:45;;;;;;;4.15;3.17;;;11.80;99.90;;;;;;5122510;27;20225;-76